createdAt,value
2018-07-19T00:01:18.792Z,25.25
2018-07-19T00:02:18.543Z,25.26
2018-07-19T00:03:18.575Z,25.26
2018-07-19T00:04:18.601Z,25.21
2018-07-19T00:05:18.637Z,25.22
2018-07-19T00:06:18.592Z,25.31
2018-07-19T00:07:18.595Z,25.26
2018-07-19T00:08:18.678Z,25.29
2018-07-19T00:09:18.668Z,25.16
2018-07-19T00:10:18.594Z,25.33
2018-07-19T00:11:18.727Z,25.31
2018-07-19T00:12:18.584Z,25.31
2018-07-19T00:13:18.632Z,25.33
2018-07-19T00:14:18.593Z,25.3
2018-07-19T00:15:18.732Z,25.33
2018-07-19T00:16:18.658Z,25.3
2018-07-19T00:17:18.640Z,25.29
2018-07-19T00:18:18.615Z,25.31
2018-07-19T00:19:18.623Z,25.31
2018-07-19T00:20:18.614Z,25.33
2018-07-19T00:21:18.633Z,25.3
2018-07-19T00:22:18.648Z,25.22
2018-07-19T00:23:18.698Z,25.18
2018-07-19T00:24:18.681Z,25.26
2018-07-19T00:25:18.594Z,25.26
2018-07-19T00:26:18.721Z,25.26
2018-07-19T00:27:18.599Z,25.26
2018-07-19T00:28:18.638Z,25.29
2018-07-19T00:29:18.738Z,25.25
2018-07-19T00:30:18.625Z,25.36
2018-07-19T00:31:18.713Z,25.33
2018-07-19T00:32:18.712Z,25.34
2018-07-19T00:33:18.706Z,25.34
2018-07-19T00:34:18.616Z,25.22
2018-07-19T00:35:18.727Z,25.29
2018-07-19T00:36:18.629Z,25.24
2018-07-19T00:37:18.723Z,25.26
2018-07-19T00:38:18.628Z,25.29
2018-07-19T00:39:18.649Z,25.24
2018-07-19T00:40:18.615Z,25.31
2018-07-19T00:41:18.710Z,25.22
2018-07-19T00:42:18.747Z,25.25
2018-07-19T00:43:18.636Z,25.24
2018-07-19T00:44:18.714Z,25.3
2018-07-19T00:45:18.680Z,25.26
2018-07-19T00:46:18.878Z,25.26
2018-07-19T00:47:18.782Z,25.29
2018-07-19T00:48:19.032Z,25.24
2018-07-19T00:49:18.665Z,25.25
2018-07-19T00:50:18.720Z,25.24
2018-07-19T00:51:18.790Z,25.29
2018-07-19T00:52:18.932Z,25.21
2018-07-19T00:53:18.696Z,25.24
2018-07-19T00:54:18.727Z,25.29
2018-07-19T00:55:18.771Z,25.31
2018-07-19T00:56:18.771Z,25.25
2018-07-19T00:57:18.667Z,25.31
2018-07-19T00:58:18.670Z,25.26
2018-07-19T00:59:18.729Z,25.25
2018-07-19T01:00:18.735Z,25.29
2018-07-19T01:01:18.691Z,25.24
2018-07-19T01:02:18.733Z,25.29
2018-07-19T01:03:18.731Z,25.24
2018-07-19T01:04:18.743Z,25.29
2018-07-19T01:05:18.715Z,25.26
2018-07-19T01:06:18.724Z,25.21
2018-07-19T01:07:18.794Z,25.25
2018-07-19T01:08:18.735Z,25.22
2018-07-19T01:09:18.704Z,25.16
2018-07-19T01:10:18.737Z,25.21
2018-07-19T01:11:18.859Z,25.31
2018-07-19T01:12:18.816Z,25.22
2018-07-19T01:13:18.754Z,25.18
2018-07-19T01:14:18.808Z,25.19
2018-07-19T01:15:18.760Z,25.19
2018-07-19T01:16:18.720Z,25.15
2018-07-19T01:17:18.751Z,25.3
2018-07-19T01:18:18.732Z,25.21
2018-07-19T01:19:18.715Z,25.16
2018-07-19T01:20:18.745Z,25.16
2018-07-19T01:21:18.852Z,25.19
2018-07-19T01:22:18.754Z,25.19
2018-07-19T01:23:18.785Z,25.16
2018-07-19T01:24:18.763Z,25.19
2018-07-19T01:25:18.782Z,25.21
2018-07-19T01:26:18.761Z,25.16
2018-07-19T01:27:18.775Z,25.19
2018-07-19T01:28:18.770Z,25.16
2018-07-19T01:29:18.698Z,25.18
2018-07-19T01:30:18.768Z,25.21
2018-07-19T01:31:18.765Z,25.19
2018-07-19T01:32:18.792Z,25.16
2018-07-19T01:33:18.757Z,25.22
2018-07-19T01:34:18.757Z,25.16
2018-07-19T01:35:18.807Z,25.24
2018-07-19T01:36:18.796Z,25.18
2018-07-19T01:37:18.851Z,25.18
2018-07-19T01:38:18.915Z,25.16
2018-07-19T01:39:18.844Z,25.11
2018-07-19T01:40:18.769Z,25.19
2018-07-19T01:41:18.758Z,25.21
2018-07-19T01:42:18.782Z,25.16
2018-07-19T01:43:18.832Z,25.16
2018-07-19T01:44:18.738Z,25.15
2018-07-19T01:45:18.908Z,25.11
2018-07-19T01:46:18.888Z,25.14
2018-07-19T01:47:18.759Z,25.19
2018-07-19T01:48:18.776Z,25.16
2018-07-19T01:49:18.808Z,25.18
2018-07-19T01:50:18.778Z,25.07
2018-07-19T01:51:18.965Z,25.14
2018-07-19T01:52:18.782Z,25.16
2018-07-19T01:53:18.874Z,25.19
2018-07-19T01:54:18.803Z,25.15
2018-07-19T01:55:18.810Z,25.11
2018-07-19T01:56:18.790Z,25.14
2018-07-19T01:57:18.834Z,25.15
2018-07-19T01:58:18.812Z,25.19
2018-07-19T01:59:18.782Z,25.11
2018-07-19T02:00:18.820Z,25.15
2018-07-19T02:01:18.860Z,25.14
2018-07-19T02:02:18.785Z,25.18
2018-07-19T02:03:18.860Z,25.15
2018-07-19T02:04:18.815Z,25.14
2018-07-19T02:05:18.902Z,25.12
2018-07-19T02:06:18.805Z,25.16
2018-07-19T02:07:18.863Z,25.11
2018-07-19T02:08:18.823Z,25.12
2018-07-19T02:09:18.798Z,25.11
2018-07-19T02:10:18.810Z,25.09
2018-07-19T02:11:18.829Z,25.14
2018-07-19T02:12:18.800Z,25.15
2018-07-19T02:13:18.856Z,25.09
2018-07-19T02:14:18.932Z,25.11
2018-07-19T02:19:38.576Z,25.07
2018-07-19T02:19:50.094Z,25.14
2018-07-19T02:20:50.076Z,25.09
2018-07-19T02:21:50.159Z,25.12
2018-07-19T02:22:50.097Z,25.14
2018-07-19T02:23:51.178Z,25.09
2018-07-19T02:24:50.224Z,25.12
2018-07-19T02:25:50.085Z,25.07
2018-07-19T02:26:50.617Z,25.01
2018-07-19T02:27:50.075Z,25.19
2018-07-19T02:28:50.162Z,25.07
2018-07-19T02:29:50.140Z,25.15
2018-07-19T02:30:50.089Z,25.07
2018-07-19T02:31:50.122Z,25.09
2018-07-19T02:32:50.098Z,25.03
2018-07-19T02:33:50.094Z,25.04
2018-07-19T02:34:50.142Z,25
2018-07-19T02:35:50.097Z,25.07
2018-07-19T02:36:50.110Z,25.03
2018-07-19T02:37:50.216Z,25.04
2018-07-19T02:38:50.098Z,25.03
2018-07-19T02:39:50.184Z,25.06
2018-07-19T02:40:50.163Z,25.07
2018-07-19T02:41:50.232Z,25.07
2018-07-19T02:42:50.223Z,25.03
2018-07-19T02:43:50.308Z,25.04
2018-07-19T02:44:50.113Z,25.06
2018-07-19T02:45:50.116Z,25.11
2018-07-19T02:46:50.142Z,25.09
2018-07-19T02:47:50.211Z,25.01
2018-07-19T02:48:50.469Z,25.04
2018-07-19T02:49:50.125Z,25.04
2018-07-19T02:50:50.201Z,25.07
2018-07-19T02:51:50.158Z,25.04
2018-07-19T02:52:50.134Z,25.03
2018-07-19T02:53:50.249Z,25.07
2018-07-19T02:54:50.199Z,25.04
2018-07-19T02:55:50.201Z,25.04
2018-07-19T02:56:50.181Z,25.07
2018-07-19T02:57:50.122Z,25.03
2018-07-19T02:58:50.144Z,25.06
2018-07-19T02:59:50.180Z,25.04
2018-07-19T03:00:50.258Z,25.03
2018-07-19T03:01:50.141Z,25.04
2018-07-19T03:02:50.171Z,25.06
2018-07-19T03:03:50.207Z,25.04
2018-07-19T03:04:50.209Z,25
2018-07-19T03:05:50.191Z,25.04
2018-07-19T03:06:50.226Z,24.99
2018-07-19T03:07:50.309Z,25.14
2018-07-19T03:08:50.262Z,25.06
2018-07-19T03:09:50.216Z,25.01
2018-07-19T03:10:50.250Z,25.03
2018-07-19T03:11:50.256Z,25.01
2018-07-19T03:12:50.211Z,25.01
2018-07-19T03:13:50.225Z,25.04
2018-07-19T03:14:50.170Z,25.09
2018-07-19T03:15:50.180Z,25.06
2018-07-19T03:16:50.244Z,25.01
2018-07-19T03:17:50.197Z,25.01
2018-07-19T03:18:50.174Z,25.06
2018-07-19T03:19:50.206Z,25
2018-07-19T03:20:50.470Z,25
2018-07-19T03:21:50.204Z,24.99
2018-07-19T03:22:50.250Z,25
2018-07-19T03:23:50.309Z,24.97
2018-07-19T03:24:50.214Z,24.99
2018-07-19T03:25:50.219Z,25.03
2018-07-19T03:26:50.304Z,24.99
2018-07-19T03:27:50.209Z,25.01
2018-07-19T03:28:50.168Z,24.97
2018-07-19T03:29:50.298Z,25
2018-07-19T03:30:50.268Z,25
2018-07-19T03:31:50.240Z,24.97
2018-07-19T03:32:50.310Z,24.93
2018-07-19T03:33:50.300Z,24.97
2018-07-19T03:34:50.205Z,25
2018-07-19T03:35:50.289Z,24.89
2018-07-19T03:36:50.243Z,24.97
2018-07-19T03:37:50.202Z,24.97
2018-07-19T03:38:50.237Z,24.96
2018-07-19T03:39:50.309Z,24.97
2018-07-19T03:40:50.197Z,24.97
2018-07-19T03:41:50.223Z,24.94
2018-07-19T03:42:50.369Z,24.99
2018-07-19T03:44:00.297Z,24.92
2018-07-19T03:44:50.245Z,24.89
2018-07-19T03:45:50.432Z,24.94
2018-07-19T03:46:50.232Z,24.99
2018-07-19T03:47:50.285Z,25.01
2018-07-19T03:48:50.271Z,24.97
2018-07-19T03:49:50.280Z,25.01
2018-07-19T03:50:50.264Z,24.96
2018-07-19T03:51:50.400Z,24.99
2018-07-19T03:52:50.304Z,24.92
2018-07-19T03:53:50.354Z,24.96
2018-07-19T03:54:50.314Z,25.06
2018-07-19T03:55:50.244Z,25
2018-07-19T03:56:50.262Z,24.99
2018-07-19T03:57:50.298Z,25.06
2018-07-19T03:58:50.345Z,24.99
2018-07-19T03:59:50.272Z,24.94
2018-07-19T04:00:50.265Z,25.01
2018-07-19T04:01:50.410Z,24.89
2018-07-19T04:02:50.329Z,25.03
2018-07-19T04:03:50.294Z,25.03
2018-07-19T04:04:50.352Z,24.97
2018-07-19T04:05:50.281Z,25.06
2018-07-19T04:06:50.306Z,25.01
2018-07-19T04:07:50.310Z,24.89
2018-07-19T04:08:50.320Z,24.88
2018-07-19T04:09:50.309Z,24.93
2018-07-19T04:10:50.303Z,24.99
2018-07-19T04:11:50.311Z,24.96
2018-07-19T04:12:50.262Z,24.89
2018-07-19T04:13:50.347Z,24.96
2018-07-19T04:14:50.357Z,24.89
2018-07-19T04:15:50.273Z,24.93
2018-07-19T04:16:50.302Z,25.01
2018-07-19T04:17:50.248Z,24.99
2018-07-19T04:18:50.345Z,24.92
2018-07-19T04:19:50.290Z,24.92
2018-07-19T04:20:50.310Z,24.89
2018-07-19T04:21:50.404Z,24.97
2018-07-19T04:22:50.310Z,24.96
2018-07-19T04:23:50.319Z,24.97
2018-07-19T04:24:50.335Z,24.94
2018-07-19T04:25:50.332Z,25
2018-07-19T04:26:50.331Z,24.99
2018-07-19T04:27:50.311Z,24.92
2018-07-19T04:28:50.424Z,24.96
2018-07-19T04:29:50.365Z,24.97
2018-07-19T04:30:50.359Z,25
2018-07-19T04:31:50.388Z,24.97
2018-07-19T04:32:50.369Z,24.89
2018-07-19T04:33:50.335Z,25
2018-07-19T04:34:50.339Z,24.89
2018-07-19T04:35:50.341Z,24.92
2018-07-19T04:36:50.351Z,24.94
2018-07-19T04:37:50.361Z,24.99
2018-07-19T04:38:50.447Z,24.89
2018-07-19T04:39:50.366Z,25.01
2018-07-19T04:40:50.350Z,24.99
2018-07-19T04:41:50.357Z,24.97
2018-07-19T04:42:50.452Z,24.93
2018-07-19T04:43:50.399Z,24.99
2018-07-19T04:44:50.379Z,24.99
2018-07-19T04:45:50.382Z,25
2018-07-19T04:46:51.159Z,25
2018-07-19T04:47:50.380Z,25
2018-07-19T04:48:50.425Z,24.99
2018-07-19T04:49:50.379Z,25.04
2018-07-19T04:50:50.394Z,24.94
2018-07-19T04:51:50.424Z,24.93
2018-07-19T04:52:50.424Z,24.97
2018-07-19T04:53:50.336Z,25.04
2018-07-19T04:54:50.451Z,24.92
2018-07-19T04:55:50.426Z,25
2018-07-19T04:56:50.430Z,24.94
2018-07-19T04:57:50.408Z,24.92
2018-07-19T04:58:50.338Z,24.94
2018-07-19T04:59:50.561Z,24.97
2018-07-19T05:00:50.360Z,24.81
2018-07-19T05:01:50.612Z,24.92
2018-07-19T05:02:50.441Z,24.96
2018-07-19T05:03:50.384Z,24.97
2018-07-19T05:04:50.412Z,24.97
2018-07-19T05:05:50.416Z,25.03
2018-07-19T05:06:50.456Z,24.89
2018-07-19T05:07:50.422Z,24.97
2018-07-19T05:08:50.409Z,24.97
2018-07-19T05:09:50.457Z,24.94
2018-07-19T05:10:50.389Z,24.97
2018-07-19T05:11:50.383Z,24.96
2018-07-19T05:12:50.465Z,24.92
2018-07-19T05:13:50.387Z,25
2018-07-19T05:14:50.388Z,24.94
2018-07-19T05:15:50.394Z,24.97
2018-07-19T05:16:50.488Z,25.01
2018-07-19T05:17:50.438Z,25.03
2018-07-19T05:18:50.366Z,24.99
2018-07-19T05:19:50.386Z,24.84
2018-07-19T05:20:50.423Z,24.97
2018-07-19T05:21:50.463Z,24.94
2018-07-19T05:22:50.450Z,24.93
2018-07-19T05:23:50.552Z,25.06
2018-07-19T05:24:50.537Z,24.97
2018-07-19T05:25:50.847Z,25
2018-07-19T05:26:50.522Z,24.94
2018-07-19T05:27:50.498Z,25
2018-07-19T05:28:50.410Z,24.89
2018-07-19T05:29:50.468Z,24.97
2018-07-19T05:30:50.453Z,24.92
2018-07-19T05:31:50.447Z,24.93
2018-07-19T05:32:50.479Z,24.94
2018-07-19T05:33:50.549Z,25
2018-07-19T05:34:50.450Z,24.99
2018-07-19T05:35:50.492Z,24.96
2018-07-19T05:36:50.465Z,25.09
2018-07-19T05:37:50.489Z,25.04
2018-07-19T05:38:50.422Z,24.92
2018-07-19T05:39:50.510Z,25
2018-07-19T05:40:50.517Z,24.93
2018-07-19T05:41:50.470Z,24.92
2018-07-19T05:42:50.443Z,24.94
2018-07-19T05:43:51.043Z,24.97
2018-07-19T05:44:50.516Z,25
2018-07-19T05:45:50.515Z,24.97
2018-07-19T05:46:50.507Z,25
2018-07-19T05:47:50.461Z,24.97
2018-07-19T05:48:50.564Z,25.09
2018-07-19T05:49:59.579Z,24.94
2018-07-19T05:50:50.475Z,25.03
2018-07-19T05:51:50.458Z,24.97
2018-07-19T05:52:50.495Z,24.94
2018-07-19T05:53:50.463Z,24.94
2018-07-19T05:54:50.495Z,24.96
2018-07-19T05:55:50.561Z,24.99
2018-07-19T05:56:50.518Z,24.99
2018-07-19T05:57:50.469Z,24.99
2018-07-19T05:58:50.536Z,24.96
2018-07-19T05:59:50.502Z,25.01
2018-07-19T06:00:50.518Z,24.94
2018-07-19T06:01:50.530Z,24.92
2018-07-19T06:02:50.579Z,24.94
2018-07-19T06:03:50.539Z,25
2018-07-19T06:04:50.617Z,24.97
2018-07-19T06:05:50.600Z,25
2018-07-19T06:06:50.529Z,24.99
2018-07-19T06:07:50.588Z,24.93
2018-07-19T06:08:50.569Z,24.94
2018-07-19T06:09:50.643Z,25
2018-07-19T06:10:50.537Z,24.99
2018-07-19T06:11:50.585Z,25
2018-07-19T06:12:50.520Z,25.03
2018-07-19T06:13:50.605Z,24.99
2018-07-19T06:14:50.578Z,24.97
2018-07-19T06:15:50.592Z,25.04
2018-07-19T06:16:50.562Z,25.01
2018-07-19T06:19:57.952Z,25.03
2018-07-19T06:20:10.095Z,25
2018-07-19T06:21:10.071Z,25
2018-07-19T06:22:10.101Z,25.03
2018-07-19T06:23:10.121Z,25.04
2018-07-19T06:24:10.025Z,25.03
2018-07-19T06:25:10.004Z,25.12
2018-07-19T06:26:10.460Z,25
2018-07-19T06:27:10.006Z,25
2018-07-19T06:28:10.067Z,25.01
2018-07-19T06:29:10.031Z,25.03
2018-07-19T06:30:10.014Z,25.09
2018-07-19T06:31:10.014Z,25.09
2018-07-19T06:32:10.029Z,25.03
2018-07-19T06:33:10.125Z,25.06
2018-07-19T06:34:10.185Z,25
2018-07-19T06:35:10.023Z,24.94
2018-07-19T06:36:10.040Z,24.97
2018-07-19T06:37:10.077Z,25.03
2018-07-19T06:38:10.094Z,25.04
2018-07-19T06:39:10.072Z,24.97
2018-07-19T06:40:10.057Z,25
2018-07-19T06:41:10.234Z,24.97
2018-07-19T06:42:10.105Z,24.96
2018-07-19T06:43:10.551Z,25.06
2018-07-19T06:44:10.068Z,24.92
2018-07-19T06:45:10.074Z,25.01
2018-07-19T06:46:10.028Z,24.92
2018-07-19T06:47:10.061Z,25.04
2018-07-19T06:48:10.065Z,24.93
2018-07-19T06:49:10.026Z,24.96
2018-07-19T06:50:10.465Z,24.94
2018-07-19T06:51:10.111Z,25
2018-07-19T06:52:09.996Z,24.97
2018-07-19T06:53:10.011Z,24.96
2018-07-19T06:54:10.132Z,24.94
2018-07-19T06:55:10.041Z,24.97
2018-07-19T06:56:10.031Z,24.94
2018-07-19T06:57:10.080Z,24.99
2018-07-19T06:58:10.070Z,25
2018-07-19T06:59:10.068Z,25.07
2018-07-19T07:00:10.180Z,24.89
2018-07-19T07:01:10.083Z,24.96
2018-07-19T07:02:10.142Z,24.89
2018-07-19T07:03:10.020Z,24.93
2018-07-19T07:04:10.099Z,25
2018-07-19T07:05:10.848Z,25.01
2018-07-19T07:06:10.086Z,24.93
2018-07-19T07:07:10.094Z,25.01
2018-07-19T07:08:10.051Z,25.03
2018-07-19T07:09:10.159Z,24.94
2018-07-19T07:10:10.112Z,24.89
2018-07-19T07:11:10.099Z,24.96
2018-07-19T07:12:10.098Z,24.97
2018-07-19T07:13:10.127Z,25.07
2018-07-19T07:14:10.044Z,24.97
2018-07-19T07:15:10.148Z,24.99
2018-07-19T07:16:10.102Z,24.99
2018-07-19T07:17:10.037Z,24.94
2018-07-19T07:18:10.165Z,24.94
2018-07-19T07:19:10.221Z,25.03
2018-07-19T07:20:10.123Z,24.92
2018-07-19T07:21:10.228Z,24.93
2018-07-19T07:22:10.187Z,24.99
2018-07-19T07:23:10.154Z,25.01
2018-07-19T07:24:10.108Z,24.94
2018-07-19T07:25:10.187Z,24.94
2018-07-19T07:26:10.139Z,24.94
2018-07-19T07:27:10.195Z,24.89
2018-07-19T07:28:10.181Z,24.86
2018-07-19T07:29:10.178Z,25.04
2018-07-19T07:30:10.172Z,25.09
2018-07-19T07:31:10.100Z,24.94
2018-07-19T07:32:10.183Z,24.89
2018-07-19T07:33:10.088Z,24.94
2018-07-19T07:34:10.307Z,24.94
2018-07-19T07:35:10.125Z,24.89
2018-07-19T07:36:10.186Z,24.88
2018-07-19T07:37:10.218Z,24.99
2018-07-19T07:38:10.144Z,24.97
2018-07-19T07:39:10.202Z,25.01
2018-07-19T07:40:10.099Z,24.94
2018-07-19T07:41:10.191Z,24.89
2018-07-19T07:42:10.147Z,25
2018-07-19T07:43:10.146Z,25.01
2018-07-19T07:44:10.251Z,24.94
2018-07-19T07:45:10.233Z,25.07
2018-07-19T07:46:10.167Z,24.89
2018-07-19T07:47:10.218Z,24.94
2018-07-19T07:48:10.639Z,24.99
2018-07-19T07:49:10.247Z,24.93
2018-07-19T07:50:10.191Z,25.06
2018-07-19T07:51:10.207Z,24.96
2018-07-19T07:52:10.153Z,24.92
2018-07-19T07:53:10.273Z,24.89
2018-07-19T07:54:10.225Z,24.96
2018-07-19T07:55:10.246Z,25.03
2018-07-19T07:56:10.201Z,24.94
2018-07-19T07:57:15.968Z,24.93
2018-07-19T07:58:10.149Z,25.06
2018-07-19T07:59:10.201Z,24.94
2018-07-19T08:00:10.185Z,24.97
2018-07-19T08:01:10.233Z,24.99
2018-07-19T08:02:10.166Z,24.92
2018-07-19T08:03:10.178Z,24.99
2018-07-19T08:04:10.275Z,25.03
2018-07-19T08:05:10.218Z,24.92
2018-07-19T08:06:10.187Z,24.93
2018-07-19T08:15:48.494Z,24.93
2018-07-19T08:16:00.097Z,24.92
2018-07-19T08:17:00.053Z,24.97
2018-07-19T08:17:59.990Z,24.88
2018-07-19T08:19:00.043Z,24.92
2018-07-19T08:20:00.048Z,24.93
2018-07-19T08:25:17.362Z,24.94
2018-07-19T08:25:28.953Z,24.89
2018-07-19T08:26:29.017Z,24.93
2018-07-19T08:27:28.949Z,24.93
2018-07-19T08:28:28.933Z,24.94
2018-07-19T08:29:29.072Z,24.86
2018-07-19T08:30:29.000Z,24.86
2018-07-19T08:31:29.282Z,24.86
2018-07-19T08:32:29.669Z,24.85
2018-07-19T08:33:28.935Z,24.93
2018-07-19T08:34:28.989Z,24.86
2018-07-19T08:35:29.757Z,24.92
2018-07-19T08:36:28.984Z,24.92
2018-07-19T08:37:29.010Z,24.93
2018-07-19T08:38:29.017Z,24.92
2018-07-19T08:39:29.081Z,24.89
2018-07-19T08:40:28.969Z,24.84
2018-07-19T08:41:28.949Z,24.85
2018-07-19T08:42:29.011Z,24.94
2018-07-19T08:43:28.900Z,24.92
2018-07-19T08:44:29.013Z,24.93
2018-07-19T08:45:29.082Z,24.92
2018-07-19T08:46:28.946Z,25
2018-07-19T08:47:29.054Z,24.94
2018-07-19T08:48:28.997Z,24.96
2018-07-19T08:49:28.963Z,24.93
2018-07-19T08:50:28.959Z,24.88
2018-07-19T08:51:29.114Z,24.94
2018-07-19T08:52:28.979Z,24.89
2018-07-19T08:53:29.029Z,24.89
2018-07-19T08:54:29.136Z,24.94
2018-07-19T08:55:28.997Z,24.89
2018-07-19T08:56:29.105Z,24.94
2018-07-19T08:57:29.055Z,24.97
2018-07-19T08:58:29.061Z,24.85
2018-07-19T08:59:29.034Z,24.89
2018-07-19T09:00:29.042Z,24.94
2018-07-19T09:01:29.159Z,24.92
2018-07-19T09:02:29.067Z,24.92
2018-07-19T09:03:29.000Z,24.94
2018-07-19T09:04:29.189Z,24.92
2018-07-19T09:05:29.068Z,24.86
2018-07-19T09:06:29.129Z,24.94
2018-07-19T09:07:29.671Z,25
2018-07-19T09:08:29.076Z,24.97
2018-07-19T09:09:29.059Z,24.93
2018-07-19T09:10:29.034Z,24.97
2018-07-19T09:11:29.066Z,24.92
2018-07-19T09:12:29.054Z,25
2018-07-19T09:13:29.044Z,25.01
2018-07-19T09:14:29.095Z,24.99
2018-07-19T09:15:29.802Z,24.93
2018-07-19T09:16:29.026Z,24.99
2018-07-19T09:17:29.032Z,24.94
2018-07-19T09:18:29.046Z,24.97
2018-07-19T09:19:29.150Z,24.99
2018-07-19T09:20:29.060Z,25.07
2018-07-19T09:27:56.673Z,24.96
2018-07-19T09:28:08.216Z,24.99
2018-07-19T09:29:08.221Z,25.01
2018-07-19T09:30:08.226Z,24.99
2018-07-19T09:31:08.211Z,24.94
2018-07-19T09:32:08.216Z,25
2018-07-19T09:33:08.279Z,25
2018-07-19T09:34:08.259Z,25.04
2018-07-19T09:35:08.188Z,25.01
2018-07-19T09:36:08.216Z,25.11
2018-07-19T09:37:08.330Z,24.97
2018-07-19T09:38:08.311Z,25.03
2018-07-19T09:39:08.257Z,25
2018-07-19T09:40:08.241Z,24.97
2018-07-19T09:41:08.280Z,25.01
2018-07-19T09:42:08.248Z,25.01
2018-07-19T09:43:08.326Z,25.01
2018-07-19T09:44:08.293Z,25.04
2018-07-19T09:45:08.246Z,25.01
2018-07-19T09:46:08.253Z,25
2018-07-19T09:47:08.310Z,25
2018-07-19T09:48:08.299Z,24.94
2018-07-19T09:49:08.301Z,24.99
2018-07-19T09:50:08.228Z,25.03
2018-07-19T09:51:08.261Z,25.07
2018-07-19T09:52:08.343Z,25.06
2018-07-19T09:53:08.299Z,25.01
2018-07-19T09:54:08.307Z,25.06
2018-07-19T09:55:08.308Z,25.09
2018-07-19T09:56:08.339Z,25.01
2018-07-19T09:57:08.284Z,25.06
2018-07-19T09:58:08.343Z,25.06
2018-07-19T09:59:08.264Z,25.03
2018-07-19T10:00:08.889Z,25.04
2018-07-19T10:01:09.045Z,25.03
2018-07-19T10:02:08.297Z,25.04
2018-07-19T10:03:08.267Z,25.04
2018-07-19T10:04:08.317Z,25.03
2018-07-19T10:05:08.303Z,25.06
2018-07-19T10:06:08.241Z,25.03
2018-07-19T10:07:08.297Z,25.04
2018-07-19T10:08:08.326Z,25.04
2018-07-19T10:09:08.281Z,25.01
2018-07-19T10:10:08.350Z,25.01
2018-07-19T10:11:08.249Z,25.07
2018-07-19T10:12:08.383Z,25.06
2018-07-19T10:13:08.315Z,25.03
2018-07-19T10:14:08.256Z,25.07
2018-07-19T10:15:08.302Z,25.04
2018-07-19T10:16:24.609Z,25.11
2018-07-19T10:17:24.661Z,25.09
2018-07-19T10:18:24.545Z,25.12
2018-07-19T10:19:24.572Z,25.07
2018-07-19T10:20:25.348Z,25.04
2018-07-19T10:21:24.591Z,25.11
2018-07-19T10:22:24.594Z,25.11
2018-07-19T10:23:24.652Z,25.11
2018-07-19T10:24:24.691Z,25.07
2018-07-19T10:25:24.536Z,25.12
2018-07-19T10:26:24.570Z,25.15
2018-07-19T10:27:24.683Z,25.19
2018-07-19T10:28:24.617Z,25.16
2018-07-19T10:29:24.694Z,25.22
2018-07-19T10:30:24.597Z,25.07
2018-07-19T10:31:24.704Z,25.22
2018-07-19T10:32:24.749Z,25.16
2018-07-19T10:33:24.628Z,25.11
2018-07-19T10:34:24.733Z,25.11
2018-07-19T10:35:24.692Z,25.15
2018-07-19T10:36:24.645Z,25.11
2018-07-19T10:37:24.665Z,25.14
2018-07-19T10:38:24.761Z,25.24
2018-07-19T10:39:25.125Z,25.14
2018-07-19T10:40:24.662Z,25.12
2018-07-19T10:41:24.626Z,25.21
2018-07-19T10:42:24.726Z,25.09
2018-07-19T10:43:24.623Z,25.18
2018-07-19T10:44:24.749Z,25.14
2018-07-19T10:45:24.550Z,25.22
2018-07-19T10:46:24.625Z,25.15
2018-07-19T10:47:24.601Z,25.22
2018-07-19T10:48:24.639Z,25.12
2018-07-19T10:49:24.590Z,25.21
2018-07-19T10:50:24.626Z,25.16
2018-07-19T10:51:24.612Z,25.15
2018-07-19T10:52:24.588Z,25.21
2018-07-19T10:53:24.647Z,25.19
2018-07-19T10:54:24.721Z,25.07
2018-07-19T10:55:24.665Z,25.18
2018-07-19T10:56:25.260Z,25.07
2018-07-19T10:57:24.767Z,25.14
2018-07-19T10:58:24.646Z,25.25
2018-07-19T10:59:24.629Z,25.11
2018-07-19T11:00:24.585Z,25.11
2018-07-19T11:01:24.625Z,25.15
2018-07-19T11:02:24.619Z,25.21
2018-07-19T11:03:24.743Z,25.15
2018-07-19T11:04:24.634Z,25.14
2018-07-19T11:05:24.668Z,25.11
2018-07-19T11:06:24.730Z,25.16
2018-07-19T11:07:24.632Z,25.14
2018-07-19T11:08:24.621Z,25.19
2018-07-19T11:09:24.734Z,25.15
2018-07-19T11:10:24.662Z,25.25
2018-07-19T11:11:24.646Z,25.15
2018-07-19T11:12:24.610Z,25.18
2018-07-19T11:13:24.647Z,25.14
2018-07-19T11:14:25.312Z,25.16
2018-07-19T11:17:31.960Z,25.16
2018-07-19T11:17:43.563Z,25.19
2018-07-19T11:18:43.544Z,25.22
2018-07-19T11:19:43.563Z,25.15
2018-07-19T11:20:43.518Z,25.21
2018-07-19T11:21:43.517Z,25.14
2018-07-19T11:22:43.594Z,25.21
2018-07-19T11:23:43.577Z,25.19
2018-07-19T11:24:43.440Z,25.16
2018-07-19T11:25:43.510Z,25.16
2018-07-19T11:26:43.520Z,25.19
2018-07-19T11:27:43.551Z,25.16
2018-07-19T11:28:44.553Z,25.11
2018-07-19T11:29:43.534Z,25.16
2018-07-19T11:30:43.545Z,25.16
2018-07-19T11:31:43.512Z,25.11
2018-07-19T11:32:43.578Z,25.18
2018-07-19T11:33:43.617Z,25.22
2018-07-19T11:34:43.601Z,25.22
2018-07-19T11:35:43.490Z,25.15
2018-07-19T11:36:43.488Z,25.21
2018-07-19T11:37:43.435Z,25.16
2018-07-19T11:38:43.585Z,25.11
2018-07-19T11:39:43.583Z,25.16
2018-07-19T11:40:43.649Z,25.16
2018-07-19T11:41:43.748Z,25.19
2018-07-19T11:42:43.502Z,25.18
2018-07-19T11:43:43.552Z,25.19
2018-07-19T11:44:43.535Z,25.24
2018-07-19T11:45:43.664Z,25.21
2018-07-19T11:47:00.177Z,25.21
2018-07-19T11:48:00.173Z,25.18
2018-07-19T11:52:29.426Z,25.15
2018-07-19T11:53:29.452Z,25.18
2018-07-19T11:54:29.413Z,25.14
2018-07-19T11:55:29.420Z,25.25
2018-07-19T11:56:29.458Z,25.25
2018-07-19T11:57:29.486Z,25.24
2018-07-19T11:58:29.363Z,25.19
2018-07-19T11:59:29.399Z,25.22
2018-07-19T12:00:29.368Z,25.22
2018-07-19T12:01:29.414Z,25.24
2018-07-19T12:02:29.421Z,25.24
2018-07-19T12:03:29.588Z,25.21
2018-07-19T12:04:29.412Z,25.16
2018-07-19T12:05:29.467Z,25.21
2018-07-19T12:06:29.451Z,25.24
2018-07-19T12:07:29.424Z,25.19
2018-07-19T12:08:29.459Z,25.12
2018-07-19T12:09:29.462Z,25.22
2018-07-19T12:10:29.451Z,25.24
2018-07-19T12:11:29.427Z,25.16
2018-07-19T12:12:29.768Z,25.18
2018-07-19T12:13:29.422Z,25.25
2018-07-19T12:14:29.477Z,25.25
2018-07-19T12:15:29.449Z,25.22
2018-07-19T12:16:29.493Z,25.25
2018-07-19T12:17:30.264Z,25.22
2018-07-19T12:18:29.503Z,25.16
2018-07-19T12:19:29.475Z,25.19
2018-07-19T12:20:29.469Z,25.19
2018-07-19T12:21:29.501Z,25.21
2018-07-19T12:22:30.201Z,25.29
2018-07-19T12:23:29.463Z,25.19
2018-07-19T12:24:29.441Z,25.18
2018-07-19T12:25:29.447Z,25.22
2018-07-19T12:26:30.312Z,25.19
2018-07-19T12:27:29.760Z,25.22
2018-07-19T12:28:33.898Z,25.26
2018-07-19T12:29:30.299Z,25.22
2018-07-19T12:30:29.531Z,25.25
2018-07-19T12:31:29.610Z,25.19
2018-07-19T12:32:30.227Z,25.26
2018-07-19T12:33:29.665Z,25.22
2018-07-19T12:34:29.842Z,25.26
2018-07-19T12:35:29.632Z,25.26
2018-07-19T12:36:30.336Z,25.25
2018-07-19T12:37:29.516Z,25.25
2018-07-19T12:38:29.577Z,25.3
2018-07-19T12:39:29.605Z,25.25
2018-07-19T12:40:29.563Z,25.25
2018-07-19T12:41:29.570Z,25.22
2018-07-19T12:42:29.473Z,25.21
2018-07-19T12:43:29.513Z,25.26
2018-07-19T12:44:29.873Z,25.31
2018-07-19T12:45:29.517Z,25.22
2018-07-19T12:46:29.482Z,25.24
2018-07-19T12:47:29.525Z,25.29
2018-07-19T12:52:46.768Z,25.26
2018-07-19T12:52:58.929Z,25.24
2018-07-19T12:53:58.346Z,25.26
2018-07-19T12:54:58.379Z,25.26
2018-07-19T12:55:58.344Z,25.31
2018-07-19T12:56:58.599Z,25.24
2018-07-19T12:57:58.429Z,25.22
2018-07-19T12:58:58.381Z,25.24
2018-07-19T12:59:58.417Z,25.3
2018-07-19T13:00:59.472Z,25.24
2018-07-19T13:01:58.319Z,25.26
2018-07-19T13:02:58.384Z,25.3
2018-07-19T13:03:58.470Z,25.29
2018-07-19T13:04:58.340Z,25.31
2018-07-19T13:05:58.450Z,25.24
2018-07-19T13:06:58.356Z,25.26
2018-07-19T13:07:58.426Z,25.24
2018-07-19T13:08:58.425Z,25.26
2018-07-19T13:09:58.351Z,25.29
2018-07-19T13:10:58.413Z,25.29
2018-07-19T13:11:58.353Z,25.21
2018-07-19T13:12:58.350Z,25.25
2018-07-19T13:13:58.351Z,25.3
2018-07-19T13:14:58.463Z,25.26
2018-07-19T13:15:58.430Z,25.34
2018-07-19T13:16:58.364Z,25.25
2018-07-19T13:17:58.405Z,25.26
2018-07-19T13:18:58.354Z,25.31
2018-07-19T13:19:58.365Z,25.24
2018-07-19T13:20:58.394Z,25.3
2018-07-19T13:23:21.222Z,25.26
2018-07-19T13:24:17.247Z,25.24
2018-07-19T13:25:17.338Z,25.3
2018-07-19T13:26:17.336Z,25.33
2018-07-19T13:27:17.352Z,25.25
2018-07-19T13:28:17.225Z,25.26
2018-07-19T13:29:17.202Z,25.22
2018-07-19T13:30:17.263Z,25.25